createdAt,value
2023-05-04T00:02:02.576Z,102203.03
2023-05-04T00:04:46.352Z,102201.44
2023-05-04T00:07:30.252Z,102200.63
2023-05-04T00:10:13.868Z,102207.81
2023-05-04T00:12:57.418Z,102200.38
2023-05-04T00:15:41.635Z,102200.75
2023-05-04T00:18:25.253Z,102201.94
2023-05-04T00:21:09.037Z,102199.34
2023-05-04T00:23:52.686Z,102197.91
2023-05-04T00:26:36.344Z,102198.41
2023-05-04T00:29:20.152Z,102197.00
2023-05-04T00:32:04.476Z,102190.47
2023-05-04T00:34:49.508Z,102192.75
2023-05-04T00:37:33.123Z,102190.16
2023-05-04T00:40:16.840Z,102189.81
2023-05-04T00:43:01.004Z,102186.50
2023-05-04T00:45:44.877Z,102192.75
2023-05-04T00:48:28.488Z,102183.69
2023-05-04T00:51:14.519Z,102192.75
2023-05-04T00:54:01.012Z,102185.59
2023-05-04T00:56:45.410Z,102184.69
2023-05-04T00:59:29.128Z,102177.97
2023-05-04T01:02:12.644Z,102185.63
2023-05-04T01:04:56.456Z,102183.72
2023-05-04T01:07:54.331Z,102189.13
2023-05-04T01:10:47.420Z,102184.47
2023-05-04T01:13:36.191Z,102189.41
2023-05-04T01:16:20.325Z,102188.91
2023-05-04T01:19:05.355Z,102185.88
2023-05-04T01:21:48.998Z,102174.72
2023-05-04T01:24:33.783Z,102173.72
2023-05-04T01:27:36.405Z,102177.25
2023-05-04T01:30:28.446Z,102174.44
2023-05-04T01:33:12.783Z,102178.25
2023-05-04T01:35:59.615Z,102180.72
2023-05-04T01:38:43.282Z,102174.53
2023-05-04T01:41:33.074Z,102187.56
2023-05-04T01:44:16.816Z,102178.09
2023-05-04T01:47:00.884Z,102176.19
2023-05-04T01:49:44.651Z,102183.53
2023-05-04T01:52:28.360Z,102182.19
2023-05-04T01:55:12.336Z,102177.56
2023-05-04T01:57:56.000Z,102180.81
2023-05-04T02:00:39.797Z,102181.59
2023-05-04T02:03:23.693Z,102181.63
2023-05-04T02:06:07.652Z,102175.41
2023-05-04T02:08:53.531Z,102171.63
2023-05-04T02:11:37.106Z,102172.16
2023-05-04T02:14:21.140Z,102175.72
2023-05-04T02:17:04.834Z,102177.09
2023-05-04T02:19:48.370Z,102171.63
2023-05-04T02:22:31.937Z,102161.06
2023-05-04T02:25:16.042Z,102163.53
2023-05-04T02:27:59.560Z,102159.19
2023-05-04T02:30:43.068Z,102158.66
2023-05-04T02:33:26.695Z,102156.75
2023-05-04T02:36:10.248Z,102153.22
2023-05-04T02:38:55.319Z,102159.19
2023-05-04T02:41:38.868Z,102163.81
2023-05-04T02:44:22.387Z,102160.28
2023-05-04T02:47:06.370Z,102168.97
2023-05-04T02:49:49.906Z,102167.59
2023-05-04T02:52:34.192Z,102160.84
2023-05-04T02:55:17.678Z,102161.34
2023-05-04T02:58:01.374Z,102168.16
2023-05-04T03:00:44.912Z,102166.25
2023-05-04T03:03:28.452Z,102164.63
2023-05-04T03:06:12.309Z,102164.63
2023-05-04T03:08:56.077Z,102165.97
2023-05-04T03:11:39.559Z,102162.72
2023-05-04T03:14:23.425Z,102156.75
2023-05-04T03:17:07.245Z,102155.94
2023-05-04T03:19:50.817Z,102162.44
2023-05-04T03:22:34.778Z,102153.16
2023-05-04T03:25:18.832Z,102152.34
2023-05-04T03:28:02.447Z,102153.47
2023-05-04T03:30:45.976Z,102148.31
2023-05-04T03:33:29.574Z,102160.50
2023-05-04T03:36:13.694Z,102168.38
2023-05-04T03:38:58.116Z,102155.06
2023-05-04T03:41:41.740Z,102158.59
2023-05-04T03:44:25.377Z,102160.19
2023-05-04T03:47:08.985Z,102160.47
2023-05-04T03:49:52.713Z,102160.19
2023-05-04T03:52:37.476Z,102160.47
2023-05-04T03:55:21.468Z,102156.41
2023-05-04T03:58:07.326Z,102158.06
2023-05-04T04:00:51.052Z,102161.88
2023-05-04T04:03:44.125Z,102157.78
2023-05-04T04:06:30.103Z,102152.63
2023-05-04T04:09:13.596Z,102158.31
2023-05-04T04:11:57.578Z,102161.53
2023-05-04T04:14:41.274Z,102168.53
2023-05-04T04:17:25.027Z,102161.78
2023-05-04T04:20:10.034Z,102159.34
2023-05-04T04:22:53.884Z,102156.38
2023-05-04T04:25:38.002Z,102156.31
2023-05-04T04:28:21.646Z,102158.28
2023-05-04T04:31:05.255Z,102155.81
2023-05-04T04:33:51.502Z,102156.31
2023-05-04T04:36:35.118Z,102150.94
2023-05-04T04:39:18.775Z,102155.81
2023-05-04T04:42:02.886Z,102155.03
2023-05-04T04:44:46.376Z,102154.50
2023-05-04T04:47:29.894Z,102146.91
2023-05-04T04:50:13.572Z,102153.47
2023-05-04T04:52:57.137Z,102147.75
2023-05-04T04:55:42.053Z,102149.09
2023-05-04T04:58:25.626Z,102148.84
2023-05-04T05:01:09.268Z,102162.69
2023-05-04T05:03:52.819Z,102157.28
2023-05-04T05:06:36.855Z,102155.66
2023-05-04T05:09:20.398Z,102157.28
2023-05-04T05:12:07.365Z,102157.03
2023-05-04T05:14:51.131Z,102151.03
2023-05-04T05:17:35.804Z,102145.34
2023-05-04T05:20:19.372Z,102147.78
2023-05-04T05:23:03.007Z,102145.06
2023-05-04T05:25:46.525Z,102144.50
2023-05-04T05:28:30.483Z,102142.34
2023-05-04T05:31:14.007Z,102147.22
2023-05-04T05:33:57.596Z,102143.66
2023-05-04T05:36:41.096Z,102140.66
2023-05-04T05:39:24.649Z,102146.59
2023-05-04T05:42:08.417Z,102143.63
2023-05-04T05:44:51.951Z,102147.41
2023-05-04T05:47:35.605Z,102151.44
2023-05-04T05:50:20.147Z,102144.56
2023-05-04T05:53:03.688Z,102135.28
2023-05-04T05:55:47.577Z,102138.78
2023-05-04T05:58:31.379Z,102143.47
2023-05-04T06:01:15.181Z,102146.16
2023-05-04T06:03:58.990Z,102137.69
2023-05-04T06:06:45.144Z,102135.19
2023-05-04T06:09:29.512Z,102142.91
2023-05-04T06:12:17.286Z,102146.66
2023-05-04T06:15:00.782Z,102131.97
2023-05-04T06:17:44.349Z,102139.22
2023-05-04T06:20:29.243Z,102140.59
2023-05-04T06:23:14.714Z,102140.81
2023-05-04T06:25:58.708Z,102136.53
2023-05-04T06:28:42.284Z,102132.94
2023-05-04T06:31:25.991Z,102135.63
2023-05-04T06:34:09.473Z,102139.69
2023-05-04T06:36:52.996Z,102130.50
2023-05-04T06:39:36.505Z,102145.41
2023-05-04T06:42:21.094Z,102140.47
2023-05-04T06:45:06.990Z,102149.69
2023-05-04T06:47:50.517Z,102144.09
2023-05-04T06:50:34.064Z,102156.44
2023-05-04T06:53:17.597Z,102150.22
2023-05-04T06:56:01.109Z,102154.22
2023-05-04T06:58:44.609Z,102145.28
2023-05-04T07:01:28.276Z,102151.13
2023-05-04T07:04:11.812Z,102143.38
2023-05-04T07:06:55.324Z,102143.25
2023-05-04T07:09:38.895Z,102143.28
2023-05-04T07:12:22.465Z,102135.38
2023-05-04T07:15:06.847Z,102136.69
2023-05-04T07:17:50.813Z,102143.91
2023-05-04T07:20:34.410Z,102142.41
2023-05-04T07:23:18.118Z,102143.28
2023-05-04T07:26:01.844Z,102132.59
2023-05-04T07:28:45.452Z,102132.44
2023-05-04T07:31:30.668Z,102137.69
2023-05-04T07:34:14.527Z,102127.94
2023-05-04T07:36:58.080Z,102121.84
2023-05-04T07:39:41.785Z,102124.06
2023-05-04T07:42:28.029Z,102126.38
2023-05-04T07:45:11.985Z,102118.28
2023-05-04T07:47:55.548Z,102116.09
2023-05-04T07:50:39.375Z,102117.91
2023-05-04T07:53:25.546Z,102116.78
2023-05-04T07:56:13.856Z,102112.00
2023-05-04T07:58:57.484Z,102106.53
2023-05-04T08:01:43.702Z,102101.97
2023-05-04T08:04:27.682Z,102098.53
2023-05-04T08:07:11.267Z,102100.75
2023-05-04T08:09:56.016Z,102100.03
2023-05-04T08:12:42.741Z,102101.00
2023-05-04T08:15:26.455Z,102099.72
2023-05-04T08:18:12.386Z,102098.97
2023-05-04T08:20:56.016Z,102100.28
2023-05-04T08:23:39.487Z,102095.59
2023-05-04T08:26:23.832Z,102090.34
2023-05-04T08:29:10.609Z,102091.44
2023-05-04T08:31:57.764Z,102093.72
2023-05-04T08:34:41.384Z,102086.41
2023-05-04T08:37:24.912Z,102080.72
2023-05-04T08:40:09.444Z,102089.59
2023-05-04T08:42:53.679Z,102080.63
2023-05-04T08:45:42.346Z,102084.00
2023-05-04T08:48:26.119Z,102080.16
2023-05-04T08:51:10.538Z,102086.59
2023-05-04T08:53:55.809Z,102077.09
2023-05-04T08:56:40.926Z,102079.06
2023-05-04T08:59:28.189Z,102072.38
2023-05-04T09:02:14.119Z,102070.22
2023-05-04T09:04:58.006Z,102074.06
2023-05-04T09:07:41.488Z,102075.38
2023-05-04T09:10:28.149Z,102072.09
2023-05-04T09:13:13.079Z,102061.19
2023-05-04T09:15:58.469Z,102067.75
2023-05-04T09:18:44.748Z,102067.22
2023-05-04T09:21:30.736Z,102075.38
2023-05-04T09:24:14.503Z,102077.66
2023-05-04T09:27:10.915Z,102064.72
2023-05-04T09:29:55.381Z,102070.25
2023-05-04T09:32:49.760Z,102064.34
2023-05-04T09:35:34.388Z,102059.09
2023-05-04T09:38:35.258Z,102055.78
2023-05-04T09:41:20.016Z,102052.47
2023-05-04T09:44:04.950Z,102048.84
2023-05-04T09:47:00.694Z,102047.28
2023-05-04T09:49:44.588Z,102054.66
2023-05-04T09:52:33.575Z,102051.41
2023-05-04T09:55:21.093Z,102039.34
2023-05-04T10:02:21.177Z,102037.91
2023-05-04T10:05:09.481Z,102032.84
2023-05-04T10:07:53.432Z,102025.38
2023-05-04T10:10:39.700Z,102013.38
2023-05-04T10:13:25.138Z,102012.34
2023-05-04T10:16:29.810Z,102005.66
2023-05-04T10:19:53.224Z,102010.16
2023-05-04T10:23:02.622Z,102005.50
2023-05-04T10:26:26.559Z,102004.19
2023-05-04T10:29:33.440Z,102002.47
2023-05-04T10:32:23.825Z,101991.19
2023-05-04T10:35:10.197Z,101984.03
2023-05-04T10:37:55.870Z,101975.38
2023-05-04T10:40:41.056Z,101981.34
2023-05-04T10:43:24.724Z,101969.78
2023-05-04T10:46:24.609Z,101962.44
2023-05-04T10:49:18.464Z,101966.66
2023-05-04T10:52:07.229Z,101963.66
2023-05-04T10:55:01.043Z,101954.91
2023-05-04T10:57:54.547Z,101950.69
2023-05-04T11:00:41.177Z,101952.31
2023-05-04T11:03:25.219Z,101946.13
2023-05-04T11:06:23.994Z,101945.66
2023-05-04T11:09:10.741Z,101930.53
2023-05-04T11:11:56.074Z,101933.03
2023-05-04T11:14:43.512Z,101925.94
2023-05-04T11:17:28.603Z,101922.16
2023-05-04T11:20:26.337Z,101920.69
2023-05-04T11:23:10.566Z,101919.38
2023-05-04T11:25:55.001Z,101912.28
2023-05-04T11:28:39.688Z,101916.88
2023-05-04T11:31:23.374Z,101915.44
2023-05-04T11:34:08.772Z,101918.31
2023-05-04T11:36:54.348Z,101911.53
2023-05-04T11:39:38.326Z,101909.50
2023-05-04T11:42:21.858Z,101907.31
2023-05-04T11:45:13.801Z,101915.25
2023-05-04T11:50:42.339Z,101913.88
2023-05-04T11:53:26.424Z,101911.22
2023-05-04T11:56:10.030Z,101896.81
2023-05-04T11:58:53.516Z,101895.25
2023-05-04T12:01:37.403Z,101888.88
2023-05-04T12:04:21.040Z,101880.44
2023-05-04T12:07:08.639Z,101877.25
2023-05-04T12:09:52.282Z,101871.22
2023-05-04T12:12:36.599Z,101872.47
2023-05-04T12:15:35.735Z,101865.63
2023-05-04T12:18:29.571Z,101863.13
2023-05-04T12:21:21.673Z,101867.13
2023-05-04T12:24:06.744Z,101865.25
2023-05-04T12:26:50.938Z,101871.94
2023-05-04T12:29:34.490Z,101861.00
2023-05-04T12:32:18.845Z,101867.22
2023-05-04T12:35:02.640Z,101866.09
2023-05-04T12:37:46.672Z,101863.72
2023-05-04T12:40:30.976Z,101865.56
2023-05-04T12:43:14.538Z,101864.97
2023-05-04T12:45:58.175Z,101865.72
2023-05-04T12:48:41.768Z,101859.06
2023-05-04T12:51:25.520Z,101865.50
2023-05-04T12:54:09.095Z,101856.09
2023-05-04T12:56:53.539Z,101845.06
2023-05-04T12:59:37.084Z,101851.56
2023-05-04T13:02:20.692Z,101848.91
2023-05-04T13:05:04.701Z,101848.91
2023-05-04T13:07:48.411Z,101848.16
2023-05-04T13:10:31.923Z,101840.53
2023-05-04T13:13:17.863Z,101834.78
2023-05-04T13:16:02.094Z,101832.75
2023-05-04T13:18:45.669Z,101819.97
2023-05-04T13:21:29.249Z,101833.72
2023-05-04T13:24:12.864Z,101826.50
2023-05-04T13:26:56.744Z,101825.31
2023-05-04T13:29:41.699Z,101819.59
2023-05-04T13:32:27.619Z,101818.16
2023-05-04T13:35:11.323Z,101812.06
2023-05-04T13:37:54.868Z,101812.09
2023-05-04T13:40:38.607Z,101805.59
2023-05-04T13:43:23.023Z,101797.47
2023-05-04T13:46:06.534Z,101795.06
2023-05-04T13:48:50.226Z,101794.03
2023-05-04T13:51:34.892Z,101787.25
2023-05-04T13:54:18.382Z,101785.66
2023-05-04T13:57:02.325Z,101777.41
2023-05-04T13:59:54.922Z,101775.75
2023-05-04T14:02:54.313Z,101768.75
2023-05-04T14:05:37.924Z,101761.41
2023-05-04T14:08:21.615Z,101764.81
2023-05-04T14:11:05.804Z,101763.19
2023-05-04T14:13:49.349Z,101755.19
2023-05-04T14:16:32.986Z,101751.66
2023-05-04T14:19:16.728Z,101740.88
2023-05-04T14:22:00.430Z,101737.34
2023-05-04T14:24:44.032Z,101741.00
2023-05-04T14:27:27.979Z,101733.88
2023-05-04T14:30:12.357Z,101725.88
2023-05-04T14:32:58.301Z,101733.63
2023-05-04T14:35:44.667Z,101720.25
2023-05-04T14:38:29.978Z,101717.94
2023-05-04T14:41:14.439Z,101724.28
2023-05-04T14:43:57.986Z,101712.78
2023-05-04T14:46:41.521Z,101705.00
2023-05-04T14:49:36.557Z,101704.41
2023-05-04T14:52:21.437Z,101697.88
2023-05-04T14:55:08.702Z,101697.97
2023-05-04T14:57:52.361Z,101694.47
2023-05-04T15:00:38.245Z,101697.44
2023-05-04T15:03:23.801Z,101695.06
2023-05-04T15:06:10.235Z,101693.63
2023-05-04T15:08:54.535Z,101689.59
2023-05-04T15:11:39.181Z,101692.53
2023-05-04T15:14:23.555Z,101687.69
2023-05-04T15:17:07.622Z,101687.59
2023-05-04T15:19:52.011Z,101683.13
2023-05-04T15:22:35.695Z,101680.84
2023-05-04T15:25:20.168Z,101674.09
2023-05-04T15:28:04.561Z,101674.72
2023-05-04T15:30:48.076Z,101664.78
2023-05-04T15:33:32.350Z,101668.13
2023-05-04T15:36:15.875Z,101670.91
2023-05-04T15:38:59.416Z,101662.31
2023-05-04T15:41:43.123Z,101669.69
2023-05-04T15:44:27.874Z,101657.25
2023-05-04T15:47:12.590Z,101655.69
2023-05-04T15:49:56.252Z,101658.59
2023-05-04T15:52:40.090Z,101652.22
2023-05-04T15:55:26.273Z,101648.19
2023-05-04T15:58:11.619Z,101653.47
2023-05-04T16:00:55.378Z,101650.69
2023-05-04T16:03:38.997Z,101636.06
2023-05-04T16:06:23.720Z,101635.50
2023-05-04T16:09:07.669Z,101637.88
2023-05-04T16:11:51.350Z,101635.34
2023-05-04T16:14:34.953Z,101634.19
2023-05-04T16:17:18.499Z,101640.47
2023-05-04T16:20:04.030Z,101636.69
2023-05-04T16:22:47.729Z,101651.66
2023-05-04T16:25:31.297Z,101652.00
2023-05-04T16:28:14.867Z,101628.88
2023-05-04T16:30:58.421Z,101624.63
2023-05-04T16:33:47.302Z,101621.91
2023-05-04T16:36:31.760Z,101629.50
2023-05-04T16:39:16.580Z,101627.91
2023-05-04T16:42:02.371Z,101615.91
2023-05-04T16:44:46.257Z,101615.97
2023-05-04T16:47:29.811Z,101612.28
2023-05-04T16:50:14.329Z,101609.81
2023-05-04T16:52:58.354Z,101611.84
2023-05-04T16:55:41.923Z,101600.28
2023-05-04T16:58:25.778Z,101610.09
2023-05-04T17:05:22.705Z,101603.66
2023-05-04T17:08:06.961Z,101602.66
2023-05-04T17:10:50.894Z,101594.63
2023-05-04T17:13:34.982Z,101604.69
2023-05-04T17:16:19.137Z,101610.06
2023-05-04T17:19:03.002Z,101611.34
2023-05-04T17:21:46.703Z,101605.91
2023-05-04T17:24:30.484Z,101598.50
2023-05-04T17:27:14.138Z,101604.94
2023-05-04T17:29:58.013Z,101602.72
2023-05-04T17:32:41.677Z,101602.75
2023-05-04T17:35:26.460Z,101602.50
2023-05-04T17:38:10.338Z,101608.09
2023-05-04T17:40:53.893Z,101606.00
2023-05-04T17:43:38.050Z,101604.28
2023-05-04T17:46:21.817Z,101605.91
2023-05-04T17:49:06.066Z,101599.56
2023-05-04T17:51:49.688Z,101602.19
2023-05-04T17:54:33.242Z,101613.38
2023-05-04T17:57:16.783Z,101606.22
2023-05-04T18:00:00.399Z,101609.75
2023-05-04T18:02:44.107Z,101604.47
2023-05-04T18:05:27.664Z,101608.97
2023-05-04T18:08:11.195Z,101608.84
2023-05-04T18:10:54.890Z,101616.94
2023-05-04T18:13:38.428Z,101617.53
2023-05-04T18:16:24.108Z,101620.00
2023-05-04T18:19:08.181Z,101621.91
2023-05-04T18:21:51.822Z,101626.50
2023-05-04T18:24:35.459Z,101631.22
2023-05-04T18:27:18.982Z,101640.75
2023-05-04T18:30:05.824Z,101631.78
2023-05-04T18:32:50.435Z,101628.59
2023-05-04T18:35:34.198Z,101629.03
2023-05-04T18:38:17.740Z,101626.84
2023-05-04T18:41:01.432Z,101628.97
2023-05-04T18:43:45.427Z,101634.75
2023-05-04T18:46:29.093Z,101626.28
2023-05-04T18:49:12.751Z,101645.22
2023-05-04T18:51:56.399Z,101645.75
2023-05-04T18:54:39.896Z,101644.28
2023-05-04T18:57:23.486Z,101653.94
2023-05-04T19:00:09.287Z,101650.31
2023-05-04T19:02:53.106Z,101650.31
2023-05-04T19:05:36.818Z,101650.59
2023-05-04T19:08:21.217Z,101657.53
2023-05-04T19:11:04.770Z,101664.22
2023-05-04T19:13:49.843Z,101661.56
2023-05-04T19:16:33.572Z,101661.56
2023-05-04T19:19:17.778Z,101664.03
2023-05-04T19:22:01.533Z,101658.88
2023-05-04T19:24:49.010Z,101645.97
2023-05-04T19:27:32.555Z,101651.41
2023-05-04T19:30:16.121Z,101649.28
2023-05-04T19:32:59.691Z,101655.41
2023-05-04T19:35:43.605Z,101652.91
2023-05-04T19:38:27.713Z,101644.09
2023-05-04T19:41:11.489Z,101649.56
2023-05-04T19:43:55.041Z,101648.41
2023-05-04T19:46:38.663Z,101658.88
2023-05-04T19:49:22.213Z,101652.22
2023-05-04T19:52:07.111Z,101645.38
2023-05-04T19:54:53.857Z,101653.56
2023-05-04T19:57:37.431Z,101655.41
2023-05-04T20:00:20.961Z,101654.38
2023-05-04T20:03:05.067Z,101658.41
2023-05-04T20:05:51.713Z,101654.47
2023-05-04T20:08:35.576Z,101658.34
2023-05-04T20:11:19.144Z,101651.91
2023-05-04T20:14:02.737Z,101656.06
2023-05-04T20:16:46.719Z,101648.31
2023-05-04T20:19:30.282Z,101659.31
2023-05-04T20:22:14.227Z,101653.94
2023-05-04T20:24:57.831Z,101653.16
2023-05-04T20:27:41.448Z,101654.66
2023-05-04T20:30:28.221Z,101650.97
2023-05-04T20:33:11.839Z,101653.75
2023-05-04T20:35:55.649Z,101656.09
2023-05-04T20:38:39.553Z,101656.03
2023-05-04T20:41:24.004Z,101653.53
2023-05-04T20:44:07.611Z,101656.78
2023-05-04T20:46:51.196Z,101651.94
2023-05-04T20:49:34.741Z,101653.31
2023-05-04T20:52:18.539Z,101657.44
2023-05-04T20:55:02.176Z,101652.78
2023-05-04T20:57:45.757Z,101655.25
2023-05-04T21:00:30.021Z,101659.06
2023-05-04T21:03:14.600Z,101647.72
2023-05-04T21:05:58.989Z,101640.66
2023-05-04T21:08:42.482Z,101635.47
2023-05-04T21:11:26.052Z,101640.34
2023-05-04T21:14:09.753Z,101637.09
2023-05-04T21:16:53.319Z,101639.94
2023-05-04T21:19:36.814Z,101634.97
2023-05-04T21:22:20.335Z,101627.88
2023-05-04T21:25:04.166Z,101627.06
2023-05-04T21:27:47.740Z,101622.63
2023-05-04T21:30:31.562Z,101621.72
2023-05-04T21:33:15.080Z,101623.56
2023-05-04T21:35:58.600Z,101622.78
2023-05-04T21:38:42.856Z,101624.63
2023-05-04T21:41:26.440Z,101627.88
2023-05-04T21:44:09.973Z,101621.94
2023-05-04T21:46:53.618Z,101623.84
2023-05-04T21:49:37.199Z,101619.75
2023-05-04T21:52:21.314Z,101620.53
2023-05-04T21:55:05.429Z,101624.25
2023-05-04T21:57:48.918Z,101623.34
2023-05-04T22:00:33.263Z,101623.28
2023-05-04T22:03:16.768Z,101626.63
2023-05-04T22:06:00.638Z,101625.56
2023-05-04T22:08:44.962Z,101627.03
2023-05-04T22:11:28.761Z,101623.38
2023-05-04T22:14:12.373Z,101625.13
2023-05-04T22:16:56.081Z,101632.72
2023-05-04T22:19:39.726Z,101628.00
2023-05-04T22:22:23.229Z,101630.81
2023-05-04T22:25:07.315Z,101634.25
2023-05-04T22:27:50.828Z,101634.72
2023-05-04T22:30:34.570Z,101628.72
2023-05-04T22:33:18.310Z,101632.56
2023-05-04T22:36:04.600Z,101629.09
2023-05-04T22:38:50.432Z,101625.00
2023-05-04T22:41:33.984Z,101621.28
2023-05-04T22:44:17.480Z,101618.06
2023-05-04T22:47:01.103Z,101625.75
2023-05-04T22:49:44.620Z,101618.81
2023-05-04T22:52:28.195Z,101629.06
2023-05-04T22:55:12.146Z,101633.28
2023-05-04T22:57:55.707Z,101637.00
2023-05-04T23:00:39.234Z,101636.53
2023-05-04T23:03:23.632Z,101647.31
2023-05-04T23:06:08.883Z,101638.13
2023-05-04T23:08:52.432Z,101642.22
2023-05-04T23:11:35.976Z,101641.56
2023-05-04T23:14:19.511Z,101640.53
2023-05-04T23:17:03.159Z,101644.22
2023-05-04T23:19:46.834Z,101642.31
2023-05-04T23:22:30.557Z,101639.25
2023-05-04T23:25:14.100Z,101642.47
2023-05-04T23:27:57.683Z,101639.72
2023-05-04T23:30:41.227Z,101641.00
2023-05-04T23:33:24.744Z,101642.16
2023-05-04T23:36:08.803Z,101634.09
2023-05-04T23:38:52.374Z,101635.69
2023-05-04T23:41:35.904Z,101634.25
2023-05-04T23:44:20.789Z,101640.38
2023-05-04T23:47:04.301Z,101636.00
2023-05-04T23:49:48.158Z,101629.41
2023-05-04T23:52:31.947Z,101632.63
2023-05-04T23:55:15.654Z,101628.94
2023-05-04T23:57:59.176Z,101625.38
